Hatsu Excel — VSXV3 — position and weather

sailwx.info

Track history (hours):
 
Tides and Currents Weather Stations Pressure Air Temp Water Temp Dewpoint Dewpoint Depression Visibility Wind Speed Wind Dir Waves Ship Positions

Hatsu Excel

Last reported at 2016-Jun-28 16:18 UTC. Time now 2016-Jun-29 03:49 UTC.
Position N 48°32' W 126°45'.

Type: Ship (hazmat cat D). MMSI: 235479000.

Date/timePositionNaut miles runAvg speedWind from/ knotsBaromVisibWave heightAir tempDewpointWater temp
2016-Jun-28 16:18N 48°32' W 126°45'912.4
2016-Jun-28 15:33N 48°32' W 126°31'1312.4
2016-Jun-28 14:33N 48°31' W 126°12'1312.7
2016-Jun-28 13:31N 48°31' W 125°53'1313.3
2016-Jun-28 12:33N 48°31' W 125°33'1414.0
2016-Jun-28 11:34N 48°31' W 125°12'1414.3
2016-Jun-28 10:33N 48°31' W 124°51'1514.8
2016-Jun-28 09:33N 48°27' W 124°29'1414.4
2016-Jun-28 08:33N 48°21' W 124°09'1414.1
2016-Jun-28 07:32N 48°17' W 123°49'1212.5
2016-Jun-28 06:33N 48°16' W 123°30'2311.3
2016-Jun-28 04:34N 48°36' W 123°14'1514.7
2016-Jun-28 03:34N 48°48' W 123°01'1818.0
2016-Jun-28 02:34N 49°01' W 123°19'1716.6
2016-Jun-28 01:33N 49°17' W 123°19'9 8.9
2016-Jun-28 00:31N 49°17' W 123°05'0 0.1
2016-Jun-27 23:31N 49°17' W 123°05'0 0.0
2016-Jun-27 22:31N 49°17' W 123°05'0 0.0
2016-Jun-27 21:31N 49°17' W 123°05'0 0.0
2016-Jun-27 20:31N 49°17' W 123°05'0 0.0
2016-Jun-27 19:31N 49°17' W 123°05'0 0.0
2016-Jun-27 18:31N 49°17' W 123°05'0 0.0
2016-Jun-27 17:31N 49°17' W 123°05'0 0.0
2016-Jun-27 16:31N 49°17' W 123°05'0 0.0
2016-Jun-27 15:33N 49°17' W 123°05'0 0.0
2016-Jun-27 14:33N 49°17' W 123°05'0 0.0
2016-Jun-27 13:33N 49°17' W 123°05'0 0.0
2016-Jun-27 12:33N 49°17' W 123°05'0 0.0
2016-Jun-27 11:33N 49°17' W 123°05'0 0.0
2016-Jun-27 10:33N 49°17' W 123°05'0 0.0
2016-Jun-27 09:33N 49°17' W 123°05'0 0.0
2016-Jun-27 08:33N 49°17' W 123°05'0 0.0
2016-Jun-27 07:34N 49°17' W 123°05'0 0.0
2016-Jun-27 06:33N 49°17' W 123°05'0 0.0
2016-Jun-27 05:33N 49°17' W 123°05'0 0.0
2016-Jun-27 04:33N 49°17' W 123°05'0 0.0
2016-Jun-27 03:33N 49°17' W 123°05'0 0.0
2016-Jun-27 02:33N 49°17' W 123°05'0 0.0
2016-Jun-27 01:33N 49°17' W 123°05'0 0.0
2016-Jun-27 00:33N 49°17' W 123°05'0 0.0
2016-Jun-26 23:33N 49°17' W 123°05'0 0.0
2016-Jun-26 22:33N 49°17' W 123°05'0 0.0
2016-Jun-26 21:33N 49°17' W 123°05'0 0.0
2016-Jun-26 20:33N 49°17' W 123°05'0 0.0
2016-Jun-26 19:33N 49°17' W 123°05'0 0.0
2016-Jun-26 18:33N 49°17' W 123°05'0 0.0
2016-Jun-26 17:33N 49°17' W 123°05'0 0.0
2016-Jun-26 16:33N 49°17' W 123°05'0 0.0
2016-Jun-26 15:33N 49°17' W 123°05'1 0.9
2016-Jun-26 14:33N 49°18' W 123°06'1010.0
2016-Jun-26 13:33N 49°13' W 123°19'1716.7
2016-Jun-26 12:33N 48°58' W 123°10'1413.6
2016-Jun-26 11:33N 48°44' W 123°07'1515.0
2016-Jun-26 10:34N 48°29' W 123°10'1110.5
2016-Jun-26 09:33N 48°22' W 123°21'1312.5
2016-Jun-26 08:34N 48°09' W 123°23'1312.6
2016-Jun-26 07:33N 48°13' W 123°04'1918.3
2016-Jun-26 06:32N 48°05' W 122°39'1515.0
2016-Jun-26 05:33N 47°53' W 122°28'1413.7
2016-Jun-26 04:34N 47°39' W 122°27'1312.5
2016-Jun-26 03:34N 47°27' W 122°24'9 8.7
2016-Jun-26 02:34N 47°18' W 122°28'4 4.2
2016-Jun-26 01:31N 47°15' W 122°23'0 0.1
2016-Jun-26 00:31N 47°15' W 122°23'0 0.0
2016-Jun-25 23:30N 47°15' W 122°23'0 0.0
2016-Jun-25 22:22N 47°15' W 122°23'0 0.0
2016-Jun-25 21:30N 47°15' W 122°23'0 0.0
2016-Jun-25 20:33N 47°15' W 122°23'0 0.0
2016-Jun-25 19:28N 47°15' W 122°23'0 0.0
2016-Jun-25 18:24N 47°15' W 122°23'0 0.0
2016-Jun-25 17:34N 47°15' W 122°23'0 0.0
2016-Jun-25 16:33N 47°15' W 122°23'0 0.0
2016-Jun-25 15:28N 47°15' W 122°23'0 0.0
2016-Jun-25 14:32N 47°15' W 122°23'0 0.0
2016-Jun-25 13:30N 47°15' W 122°23'0 0.0
2016-Jun-25 12:33N 47°15' W 122°23'0 0.0
2016-Jun-25 11:33N 47°15' W 122°23'0 0.0
2016-Jun-25 10:33N 47°15' W 122°23'0 0.0
2016-Jun-25 09:33N 47°15' W 122°23'0 0.0
2016-Jun-25 08:33N 47°15' W 122°23'0 0.0
2016-Jun-25 07:32N 47°15' W 122°23'0 0.0
2016-Jun-25 06:34N 47°15' W 122°23'0 0.0
2016-Jun-25 05:27N 47°15' W 122°23'0 0.0
2016-Jun-25 04:33N 47°15' W 122°23'0 0.0
2016-Jun-25 03:33N 47°15' W 122°23'0 0.0
2016-Jun-25 02:34N 47°15' W 122°23'0 0.0
2016-Jun-25 01:29N 47°15' W 122°23'0 0.0
2016-Jun-25 00:29N 47°15' W 122°23'0 0.0
2016-Jun-24 23:23N 47°15' W 122°23'0 0.0
2016-Jun-24 22:20N 47°15' W 122°23'0 0.0
2016-Jun-24 21:26N 47°15' W 122°23'0 0.0
2016-Jun-24 20:32N 47°15' W 122°23'0 0.0
2016-Jun-24 19:26N 47°15' W 122°23'0 0.0
2016-Jun-24 18:16N 47°15' W 122°23'0 0.0
2016-Jun-24 17:26N 47°15' W 122°23'0 0.0
2016-Jun-24 16:20N 47°15' W 122°23'0 0.0
2016-Jun-24 11:33N 47°15' W 122°23'3 3.1
2016-Jun-24 10:34N 47°17' W 122°26'9 8.9
2016-Jun-24 09:34N 47°26' W 122°24'1413.6
2016-Jun-24 08:33N 47°40' W 122°28'1616.0
2016-Jun-24 07:34N 47°56' W 122°31'4314.1
2016-Jun-24 04:33N 48°12' W 123°30'1312.9
2016-Jun-24 03:33N 48°13' W 123°49'1313.6
2016-Jun-24 02:33N 48°17' W 124°08'1414.2
2016-Jun-24 01:34N 48°24' W 124°27'1413.8
2016-Jun-24 00:34N 48°29' W 124°47'1514.6
2016-Jun-23 23:34N 48°29' W 125°09'1414.0
2016-Jun-23 22:33N 48°28' W 125°30'1413.6
2016-Jun-23 21:33N 48°29' W 125°50'1413.8
2016-Jun-23 20:33N 48°29' W 126°11'1413.6
2016-Jun-23 19:32N 48°29' W 126°32'  
Track history (hours):
 
Tides and Currents Weather Stations Pressure Air Temp Water Temp Dewpoint Dewpoint Depression Visibility Wind Speed Wind Dir Waves Ship Positions

Hatsu Excel

Last reported at 2016-Jun-28 16:18 UTC. Time now 2016-Jun-29 03:49 UTC.
Position N 48°32' W 126°45'.

Type: Ship (hazmat cat D). MMSI: 235479000.

Date/timePositionNaut miles runAvg speedWind from/ knotsBaromVisibWave heightAir tempDewpointWater temp
2016-Jun-28 16:18N 48°32' W 126°45'912.4
2016-Jun-28 15:33N 48°32' W 126°31'1312.4
2016-Jun-28 14:33N 48°31' W 126°12'1312.7
2016-Jun-28 13:31N 48°31' W 125°53'1313.3
2016-Jun-28 12:33N 48°31' W 125°33'1414.0
2016-Jun-28 11:34N 48°31' W 125°12'1414.3
2016-Jun-28 10:33N 48°31' W 124°51'1514.8
2016-Jun-28 09:33N 48°27' W 124°29'1414.4
2016-Jun-28 08:33N 48°21' W 124°09'1414.1
2016-Jun-28 07:32N 48°17' W 123°49'1212.5
2016-Jun-28 06:33N 48°16' W 123°30'2311.3
2016-Jun-28 04:34N 48°36' W 123°14'1514.7
2016-Jun-28 03:34N 48°48' W 123°01'1818.0
2016-Jun-28 02:34N 49°01' W 123°19'1716.6
2016-Jun-28 01:33N 49°17' W 123°19'9 8.9
2016-Jun-28 00:31N 49°17' W 123°05'0 0.1
2016-Jun-27 23:31N 49°17' W 123°05'0 0.0
2016-Jun-27 22:31N 49°17' W 123°05'0 0.0
2016-Jun-27 21:31N 49°17' W 123°05'0 0.0
2016-Jun-27 20:31N 49°17' W 123°05'0 0.0
2016-Jun-27 19:31N 49°17' W 123°05'0 0.0
2016-Jun-27 18:31N 49°17' W 123°05'0 0.0
2016-Jun-27 17:31N 49°17' W 123°05'0 0.0
2016-Jun-27 16:31N 49°17' W 123°05'0 0.0
2016-Jun-27 15:33N 49°17' W 123°05'0 0.0
2016-Jun-27 14:33N 49°17' W 123°05'0 0.0
2016-Jun-27 13:33N 49°17' W 123°05'0 0.0
2016-Jun-27 12:33N 49°17' W 123°05'0 0.0
2016-Jun-27 11:33N 49°17' W 123°05'0 0.0
2016-Jun-27 10:33N 49°17' W 123°05'0 0.0
2016-Jun-27 09:33N 49°17' W 123°05'0 0.0
2016-Jun-27 08:33N 49°17' W 123°05'0 0.0
2016-Jun-27 07:34N 49°17' W 123°05'0 0.0
2016-Jun-27 06:33N 49°17' W 123°05'0 0.0
2016-Jun-27 05:33N 49°17' W 123°05'0 0.0
2016-Jun-27 04:33N 49°17' W 123°05'0 0.0
2016-Jun-27 03:33N 49°17' W 123°05'0 0.0
2016-Jun-27 02:33N 49°17' W 123°05'0 0.0
2016-Jun-27 01:33N 49°17' W 123°05'0 0.0
2016-Jun-27 00:33N 49°17' W 123°05'0 0.0
2016-Jun-26 23:33N 49°17' W 123°05'0 0.0
2016-Jun-26 22:33N 49°17' W 123°05'0 0.0
2016-Jun-26 21:33N 49°17' W 123°05'0 0.0
2016-Jun-26 20:33N 49°17' W 123°05'0 0.0
2016-Jun-26 19:33N 49°17' W 123°05'0 0.0
2016-Jun-26 18:33N 49°17' W 123°05'0 0.0
2016-Jun-26 17:33N 49°17' W 123°05'0 0.0
2016-Jun-26 16:33N 49°17' W 123°05'0 0.0
2016-Jun-26 15:33N 49°17' W 123°05'1 0.9
2016-Jun-26 14:33N 49°18' W 123°06'1010.0
2016-Jun-26 13:33N 49°13' W 123°19'1716.7
2016-Jun-26 12:33N 48°58' W 123°10'1413.6
2016-Jun-26 11:33N 48°44' W 123°07'1515.0
2016-Jun-26 10:34N 48°29' W 123°10'1110.5
2016-Jun-26 09:33N 48°22' W 123°21'1312.5
2016-Jun-26 08:34N 48°09' W 123°23'1312.6
2016-Jun-26 07:33N 48°13' W 123°04'1918.3
2016-Jun-26 06:32N 48°05' W 122°39'1515.0
2016-Jun-26 05:33N 47°53' W 122°28'1413.7
2016-Jun-26 04:34N 47°39' W 122°27'1312.5
2016-Jun-26 03:34N 47°27' W 122°24'9 8.7
2016-Jun-26 02:34N 47°18' W 122°28'4 4.2
2016-Jun-26 01:31N 47°15' W 122°23'0 0.1
2016-Jun-26 00:31N 47°15' W 122°23'0 0.0
2016-Jun-25 23:30N 47°15' W 122°23'0 0.0
2016-Jun-25 22:22N 47°15' W 122°23'0 0.0
2016-Jun-25 21:30N 47°15' W 122°23'0 0.0
2016-Jun-25 20:33N 47°15' W 122°23'0 0.0
2016-Jun-25 19:28N 47°15' W 122°23'0 0.0
2016-Jun-25 18:24N 47°15' W 122°23'0 0.0
2016-Jun-25 17:34N 47°15' W 122°23'0 0.0
2016-Jun-25 16:33N 47°15' W 122°23'0 0.0
2016-Jun-25 15:28N 47°15' W 122°23'0 0.0
2016-Jun-25 14:32N 47°15' W 122°23'0 0.0
2016-Jun-25 13:30N 47°15' W 122°23'0 0.0
2016-Jun-25 12:33N 47°15' W 122°23'0 0.0
2016-Jun-25 11:33N 47°15' W 122°23'0 0.0
2016-Jun-25 10:33N 47°15' W 122°23'0 0.0
2016-Jun-25 09:33N 47°15' W 122°23'0 0.0
2016-Jun-25 08:33N 47°15' W 122°23'0 0.0
2016-Jun-25 07:32N 47°15' W 122°23'0 0.0
2016-Jun-25 06:34N 47°15' W 122°23'0 0.0
2016-Jun-25 05:27N 47°15' W 122°23'0 0.0
2016-Jun-25 04:33N 47°15' W 122°23'0 0.0
2016-Jun-25 03:33N 47°15' W 122°23'0 0.0
2016-Jun-25 02:34N 47°15' W 122°23'0 0.0
2016-Jun-25 01:29N 47°15' W 122°23'0 0.0
2016-Jun-25 00:29N 47°15' W 122°23'0 0.0
2016-Jun-24 23:23N 47°15' W 122°23'0 0.0
2016-Jun-24 22:20N 47°15' W 122°23'0 0.0
2016-Jun-24 21:26N 47°15' W 122°23'0 0.0
2016-Jun-24 20:32N 47°15' W 122°23'0 0.0
2016-Jun-24 19:26N 47°15' W 122°23'0 0.0
2016-Jun-24 18:16N 47°15' W 122°23'0 0.0
2016-Jun-24 17:26N 47°15' W 122°23'0 0.0
2016-Jun-24 16:20N 47°15' W 122°23'0 0.0
2016-Jun-24 11:33N 47°15' W 122°23'3 3.1
2016-Jun-24 10:34N 47°17' W 122°26'9 8.9
2016-Jun-24 09:34N 47°26' W 122°24'1413.6
2016-Jun-24 08:33N 47°40' W 122°28'1616.0
2016-Jun-24 07:34N 47°56' W 122°31'4314.1
2016-Jun-24 04:33N 48°12' W 123°30'1312.9
2016-Jun-24 03:33N 48°13' W 123°49'1313.6
2016-Jun-24 02:33N 48°17' W 124°08'1414.2
2016-Jun-24 01:34N 48°24' W 124°27'1413.8
2016-Jun-24 00:34N 48°29' W 124°47'1514.6
2016-Jun-23 23:34N 48°29' W 125°09'1414.0
2016-Jun-23 22:33N 48°28' W 125°30'1413.6
2016-Jun-23 21:33N 48°29' W 125°50'1413.8
2016-Jun-23 20:33N 48°29' W 126°11'1413.6
2016-Jun-23 19:32N 48°29' W 126°32'  

Dump ship's entire track history